Time;durP1;ratioP1;P1;durP2;ratioP2;P2;SDS_P1;SDS_P2;PMS_P1;PMS_P2;Temp;Humidity;BMP_temperature;BMP_pressure;BME280_temperature;BME280_humidity;BME280_pressure;Samples;Min_cycle;Max_cycle;Signal;HPM_P1;HPM_P2
2023/03/09 00:00:35;;;;;;;2.07;1.07;;;;;;;8.14;100.00;94002.09;5053415;28;20089;-82
2023/03/09 00:03:01;;;;;;;3.33;1.67;;;;;;;8.13;100.00;94000.50;5057596;28;20036;-82
2023/03/09 00:05:27;;;;;;;5.63;1.10;;;;;;;8.14;100.00;93994.25;5048300;28;20040;-83
2023/03/09 00:07:54;;;;;;;4.10;1.60;;;;;;;8.12;100.00;93982.38;5051421;28;20091;-83
2023/03/09 00:10:26;;;;;;;6.57;1.60;;;;;;;8.18;100.00;93978.94;5070584;28;20033;-83
2023/03/09 00:12:52;;;;;;;3.57;1.23;;;;;;;8.15;100.00;93966.25;5033586;28;20506;-82
2023/03/09 00:15:17;;;;;;;3.80;1.40;;;;;;;8.09;100.00;93954.78;5048977;28;20041;-83
2023/03/09 00:17:44;;;;;;;3.87;1.47;;;;;;;8.15;100.00;93946.16;5066723;28;20044;-83
2023/03/09 00:20:24;;;;;;;4.00;1.20;;;;;;;8.19;100.00;93944.72;5065231;28;20100;-83
2023/03/09 00:22:52;;;;;;;6.53;1.40;;;;;;;8.25;100.00;93941.31;5057297;28;20486;-83
2023/03/09 00:25:21;;;;;;;5.10;1.50;;;;;;;8.32;100.00;93927.41;5046942;28;20116;-82
2023/03/09 00:27:50;;;;;;;6.80;2.40;;;;;;;8.31;100.00;93913.50;5055968;28;20044;-83
2023/03/09 00:30:17;;;;;;;4.23;1.33;;;;;;;8.33;100.00;93913.31;5066330;28;20029;-83
2023/03/09 00:32:43;;;;;;;9.07;2.10;;;;;;;8.42;100.00;93914.75;5067903;28;20040;-83
2023/03/09 00:35:09;;;;;;;6.43;2.03;;;;;;;8.43;100.00;93895.41;5051884;28;20441;-83
2023/03/09 00:37:38;;;;;;;5.83;2.07;;;;;;;8.41;100.00;93894.78;5071814;28;20033;-83
2023/03/09 00:40:09;;;;;;;4.40;1.63;;;;;;;8.44;100.00;93907.47;5067334;28;20115;-83
2023/03/09 00:42:41;;;;;;;4.30;1.50;;;;;;;8.44;100.00;93897.00;5057805;28;20033;-82
2023/03/09 00:45:08;;;;;;;5.10;1.37;;;;;;;8.46;100.00;93901.03;5081283;28;20071;-82
2023/03/09 00:47:34;;;;;;;5.93;1.70;;;;;;;8.49;100.00;93884.13;5064973;28;20040;-82
2023/03/09 00:50:00;;;;;;;5.10;1.80;;;;;;;8.53;100.00;93895.78;5048279;28;20344;-82
2023/03/09 00:52:26;;;;;;;3.87;1.50;;;;;;;8.53;100.00;93885.31;5019980;28;20063;-82
2023/03/09 00:54:53;;;;;;;3.57;0.80;;;;;;;8.70;100.00;93902.22;5081661;28;20944;-83
2023/03/09 00:57:23;;;;;;;2.97;1.00;;;;;;;9.04;100.00;93913.41;5051105;28;20028;-82
2023/03/09 00:59:51;;;;;;;2.23;0.90;;;;;;;9.15;100.00;93898.84;5048536;28;20155;-83
2023/03/09 01:02:19;;;;;;;1.90;0.50;;;;;;;9.02;100.00;93873.50;5083918;28;20102;-83
2023/03/09 01:04:47;;;;;;;1.13;0.43;;;;;;;8.96;100.00;93887.44;5072725;28;20033;-83
2023/03/09 01:07:14;;;;;;;2.43;0.60;;;;;;;8.95;100.00;93898.91;5039124;28;20028;-83
2023/03/09 01:09:40;;;;;;;1.37;0.53;;;;;;;8.93;100.00;93908.81;5067777;28;20475;-83
2023/03/09 01:12:06;;;;;;;0.30;0.23;;;;;;;8.95;100.00;93933.00;5054231;28;20056;-84
2023/03/09 01:14:33;;;;;;;1.60;0.23;;;;;;;8.91;100.00;93950.16;5063976;28;20040;-84
2023/03/09 01:16:59;;;;;;;2.17;0.83;;;;;;;9.00;100.00;93962.03;5053778;28;20037;-84
2023/03/09 01:19:25;;;;;;;2.83;0.60;;;;;;;8.89;100.00;93952.19;5055741;28;20033;-84
2023/03/09 01:21:51;;;;;;;3.63;0.50;;;;;;;8.85;100.00;93982.41;5085407;28;20107;-84
2023/03/09 01:24:17;;;;;;;4.80;0.60;;;;;;;8.70;100.00;93970.34;5083062;28;20032;-84
2023/03/09 01:26:42;;;;;;;1.57;0.70;;;;;;;8.67;100.00;93988.28;5075629;28;20041;-83
2023/03/09 01:29:08;;;;;;;4.10;0.60;;;;;;;8.67;100.00;93983.03;5053217;28;20045;-83
2023/03/09 01:31:34;;;;;;;2.97;0.60;;;;;;;8.60;100.00;93985.66;5052387;28;20120;-83
2023/03/09 01:33:59;;;;;;;4.33;0.77;;;;;;;8.53;100.00;93989.28;5036664;28;20383;-83
2023/03/09 01:36:25;;;;;;;1.87;0.67;;;;;;;8.52;100.00;93985.03;5051495;28;20055;-83
2023/03/09 01:38:51;;;;;;;1.87;0.60;;;;;;;8.40;100.00;93988.28;5058937;28;20110;-82
2023/03/09 01:41:19;;;;;;;1.67;0.57;;;;;;;8.40;100.00;93985.66;5057723;28;20036;-83
2023/03/09 01:43:47;;;;;;;4.07;0.70;;;;;;;8.38;100.00;93992.91;5040429;28;20742;-83
2023/03/09 01:46:34;;;;;;;0.77;0.40;;;;;;;8.40;100.00;93990.91;5059575;28;20035;-83
2023/03/09 01:49:13;;;;;;;1.50;0.50;;;;;;;8.41;100.00;93996.94;5052860;28;20509;-84
2023/03/09 01:51:46;;;;;;;3.70;0.43;;;;;;;8.36;100.00;93992.28;5061947;28;20519;-84
2023/03/09 01:54:16;;;;;;;;;;;;;;;8.32;100.00;93990.28;5051004;28;20044;-83
2023/03/09 01:56:54;;;;;;;0.93;0.30;;;;;;;8.26;100.00;93984.81;5051318;28;19984;-83
2023/03/09 01:59:24;;;;;;;0.97;0.30;;;;;;;8.26;100.00;93989.25;5057984;28;20062;-83
2023/03/09 02:01:50;;;;;;;0.60;0.30;;;;;;;8.20;100.00;93990.03;5042960;28;20028;-83
2023/03/09 02:04:24;;;;;;;2.30;0.30;;;;;;;8.10;100.00;93990.44;5067426;28;20843;-83
2023/03/09 02:06:49;;;;;;;0.43;0.22;;;;;;;8.05;100.00;93982.38;5055765;28;20429;-83
2023/03/09 02:09:29;;;;;;;1.50;0.40;;;;;;;8.06;100.00;93983.19;5066331;28;20040;-83
2023/03/09 02:11:58;;;;;;;0.73;0.30;;;;;;;8.03;100.00;93987.00;5084132;28;20065;-83
2023/03/09 02:14:46;;;;;;;1.53;0.33;;;;;;;7.90;100.00;93985.16;5048945;28;20052;-83
2023/03/09 02:17:14;;;;;;;0.53;0.20;;;;;;;7.98;100.00;94018.19;5048948;28;20033;-83
2023/03/09 02:20:36;;;;;;;0.10;0.00;;;;;;;7.98;100.00;94003.31;5072651;28;20124;-83
2023/03/09 02:23:33;;;;;;;0.53;0.30;;;;;;;7.83;100.00;94005.25;5053397;28;20124;-83
2023/03/09 02:26:25;;;;;;;0.30;0.13;;;;;;;7.89;100.00;93993.22;5056165;28;20025;-84
2023/03/09 02:28:51;;;;;;;0.40;0.10;;;;;;;7.86;100.00;93977.91;5053931;28;20063;-83
2023/03/09 02:31:19;;;;;;;0.77;0.20;;;;;;;7.83;100.00;93979.09;5060491;28;20058;-85
2023/03/09 02:33:45;;;;;;;0.63;0.10;;;;;;;7.89;100.00;93995.81;5062193;28;20115;-83
2023/03/09 02:36:11;;;;;;;1.33;0.20;;;;;;;7.86;100.00;93994.41;5063371;28;20032;-84
2023/03/09 02:38:40;;;;;;;0.40;0.20;;;;;;;7.90;100.00;94000.03;5068871;28;20530;-83
2023/03/09 02:41:10;;;;;;;0.13;0.10;;;;;;;7.79;100.00;93981.31;5034232;28;20422;-83
2023/03/09 02:43:42;;;;;;;0.30;0.20;;;;;;;7.80;100.00;93982.91;5081541;28;20060;-84
2023/03/09 02:46:08;;;;;;;0.07;0.07;;;;;;;7.78;100.00;93984.94;5069151;28;20033;-84
2023/03/09 02:48:37;;;;;;;1.30;0.20;;;;;;;7.83;100.00;93986.16;5066745;28;20033;-84
2023/03/09 02:51:03;;;;;;;0.50;0.20;;;;;;;7.73;100.00;93966.38;5048249;28;20037;-84
2023/03/09 02:53:28;;;;;;;1.30;0.30;;;;;;;7.66;100.00;93973.41;5062962;28;20538;-84
2023/03/09 02:55:55;;;;;;;1.00;0.20;;;;;;;7.68;100.00;93970.59;5044344;28;20036;-84
2023/03/09 02:58:22;;;;;;;0.97;0.20;;;;;;;7.62;100.00;93963.56;5079824;28;20037;-84
2023/03/09 03:00:48;;;;;;;0.20;0.10;;;;;;;7.57;100.00;93967.53;5065960;28;20039;-84
2023/03/09 03:03:18;;;;;;;0.50;0.30;;;;;;;7.61;100.00;93946.22;5036861;28;20112;-84
2023/03/09 03:05:44;;;;;;;0.83;0.20;;;;;;;7.54;100.00;93960.13;5071619;28;20037;-82
2023/03/09 03:08:11;;;;;;;0.30;0.10;;;;;;;7.53;100.00;93965.53;5090200;28;20038;-84
2023/03/09 03:10:38;;;;;;;1.33;0.37;;;;;;;7.54;100.00;93956.66;5066882;28;20127;-84
2023/03/09 03:13:03;;;;;;;0.50;0.20;;;;;;;7.52;100.00;93956.06;5050435;28;20028;-84
2023/03/09 03:15:29;;;;;;;0.40;0.20;;;;;;;7.52;100.00;93961.31;5063578;28;20036;-84
2023/03/09 03:17:55;;;;;;;2.20;0.37;;;;;;;7.52;100.00;93963.91;5048669;28;20513;-84
2023/03/09 03:20:23;;;;;;;0.30;0.10;;;;;;;7.44;100.00;93972.72;5049438;28;20816;-84
2023/03/09 03:22:49;;;;;;;0.37;0.10;;;;;;;7.43;100.00;93983.38;5083407;28;20029;-84
2023/03/09 03:25:19;;;;;;;0.43;0.20;;;;;;;7.42;100.00;93976.56;5050494;28;20033;-84
2023/03/09 03:27:48;;;;;;;0.57;0.20;;;;;;;7.42;100.00;93987.00;5084151;28;20574;-84
2023/03/09 03:30:15;;;;;;;0.63;0.10;;;;;;;7.45;100.00;93981.41;5085079;28;20035;-84
2023/03/09 03:32:43;;;;;;;1.03;0.20;;;;;;;7.40;100.00;93999.47;5045852;28;20037;-85
2023/03/09 03:35:11;;;;;;;1.10;0.23;;;;;;;7.38;100.00;94001.44;5066849;28;20110;-83
2023/03/09 03:37:41;;;;;;;1.27;0.27;;;;;;;7.50;100.00;94010.38;5068388;28;20056;-84
2023/03/09 03:40:08;;;;;;;2.00;0.30;;;;;;;7.41;100.00;94016.75;5051156;28;20055;-84
2023/03/09 03:42:35;;;;;;;0.20;0.17;;;;;;;7.38;100.00;94035.44;5050723;28;20459;-84
2023/03/09 03:45:02;;;;;;;1.90;0.20;;;;;;;7.36;100.00;94032.25;5057010;28;20399;-84
2023/03/09 03:47:28;;;;;;;1.27;0.13;;;;;;;7.37;100.00;94046.91;5067740;28;20105;-83
2023/03/09 03:49:53;;;;;;;0.67;0.20;;;;;;;7.25;100.00;94057.91;5048548;28;20116;-84
2023/03/09 03:52:20;;;;;;;0.87;0.27;;;;;;;7.25;100.00;94063.16;5063568;28;20164;-84
2023/03/09 03:54:47;;;;;;;1.20;0.23;;;;;;;7.25;100.00;94086.69;5051409;28;20116;-84
2023/03/09 03:57:23;;;;;;;0.60;0.30;;;;;;;7.28;100.00;94086.28;5051217;28;20452;-83
2023/03/09 03:59:51;;;;;;;1.20;0.20;;;;;;;7.31;100.00;94121.72;5034880;28;20068;-84
2023/03/09 04:02:17;;;;;;;1.90;0.30;;;;;;;7.26;100.00;94131.94;5056999;28;20390;-83
2023/03/09 04:04:45;;;;;;;0.73;0.20;;;;;;;7.18;100.00;94137.31;5049450;28;20033;-83
2023/03/09 04:07:11;;;;;;;0.40;0.23;;;;;;;7.03;100.00;94160.91;5066370;28;20036;-83
2023/03/09 04:09:37;;;;;;;0.27;0.10;;;;;;;6.94;100.00;94173.31;5070741;28;20033;-83
2023/03/09 04:12:04;;;;;;;0.73;0.20;;;;;;;6.98;100.00;94163.28;5057167;28;20061;-83
2023/03/09 04:14:32;;;;;;;5.63;0.40;;;;;;;6.95;100.00;94171.50;5068763;28;20094;-83
2023/03/09 04:17:12;;;;;;;1.97;0.40;;;;;;;6.90;100.00;94179.06;5056734;28;20086;-83
2023/03/09 04:19:38;;;;;;;0.80;0.20;;;;;;;6.85;100.00;94180.44;5049131;28;20398;-83
2023/03/09 04:22:04;;;;;;;1.40;0.27;;;;;;;6.93;100.00;94178.69;5049511;28;20033;-83
2023/03/09 04:24:31;;;;;;;2.07;0.30;;;;;;;6.87;100.00;94200.34;5057355;28;20042;-83
2023/03/09 04:26:57;;;;;;;0.83;0.20;;;;;;;6.90;100.00;94197.34;5067424;28;20753;-84
2023/03/09 04:29:59;;;;;;;2.30;0.40;;;;;;;6.87;100.00;94198.53;5073001;28;20207;-83
2023/03/09 04:32:28;;;;;;;2.67;0.60;;;;;;;6.91;100.00;94217.25;5045477;28;20041;-83
2023/03/09 04:35:28;;;;;;;2.17;0.33;;;;;;;6.95;100.00;94218.53;5063664;28;20036;-82
2023/03/09 04:37:57;;;;;;;0.60;0.20;;;;;;;6.96;100.00;94235.81;5052527;28;20033;-83
2023/03/09 04:40:23;;;;;;;0.80;0.20;;;;;;;6.91;100.00;94233.78;5072580;28;20116;-83
2023/03/09 04:42:51;;;;;;;1.87;0.40;;;;;;;6.83;100.00;94242.50;5052674;28;20595;-84
2023/03/09 04:45:17;;;;;;;2.30;0.60;;;;;;;6.83;100.00;94265.22;5069724;28;20032;-83
2023/03/09 04:47:45;;;;;;;2.63;0.40;;;;;;;6.83;100.00;94271.25;5085309;28;20013;-83
2023/03/09 04:50:11;;;;;;;2.07;0.80;;;;;;;6.84;100.00;94277.28;5073821;28;20043;-83
2023/03/09 04:52:44;;;;;;;0.60;0.28;;;;;;;6.89;100.00;94277.56;5063028;28;20048;-84
2023/03/09 04:55:10;;;;;;;2.57;0.30;;;;;;;6.85;100.00;94278.91;5062934;28;20610;-84
2023/03/09 04:58:04;;;;;;;2.27;0.50;;;;;;;6.79;100.00;94290.91;5075142;28;20048;-83
2023/03/09 05:00:32;;;;;;;4.63;0.70;;;;;;;6.81;100.00;94295.97;5051792;28;20033;-84
2023/03/09 05:03:00;;;;;;;1.67;0.40;;;;;;;6.80;100.00;94302.97;5055843;28;20087;-83
2023/03/09 05:05:44;;;;;;;4.03;0.60;;;;;;;6.81;100.00;94302.00;5052215;28;20790;-83
2023/03/09 05:08:26;;;;;;;5.77;1.10;;;;;;;6.79;100.00;94298.75;5051047;28;20483;-83
2023/03/09 05:10:52;;;;;;;2.57;0.60;;;;;;;6.81;100.00;94312.44;5042541;28;20033;-83
2023/03/09 05:13:25;;;;;;;4.90;1.30;;;;;;;6.79;100.00;94314.41;5062566;28;20520;-83
2023/03/09 05:15:51;;;;;;;4.60;1.07;;;;;;;6.79;100.00;94314.41;5055262;28;20024;-83
2023/03/09 05:18:17;;;;;;;5.80;0.97;;;;;;;6.88;100.00;94322.16;5052115;28;20052;-83
2023/03/09 05:20:42;;;;;;;6.13;1.20;;;;;;;6.87;100.00;94317.91;5056156;28;20039;-83
2023/03/09 05:23:09;;;;;;;4.47;1.17;;;;;;;6.88;100.00;94324.78;5052357;28;20037;-83
2023/03/09 05:25:38;;;;;;;4.43;1.00;;;;;;;6.93;100.00;94330.25;5059838;28;20074;-83
2023/03/09 05:28:07;;;;;;;7.00;1.40;;;;;;;6.91;100.00;94338.28;5051116;28;20028;-83
2023/03/09 05:30:34;;;;;;;7.10;2.00;;;;;;;6.88;100.00;94335.22;5075405;28;20064;-83
2023/03/09 05:33:05;;;;;;;6.00;0.97;;;;;;;6.94;100.00;94342.31;5060064;28;20036;-83
2023/03/09 05:35:33;;;;;;;7.27;1.03;;;;;;;6.95;100.00;94355.22;5043665;28;20450;-83
2023/03/09 05:38:01;;;;;;;7.77;1.83;;;;;;;7.01;100.00;94361.53;5052057;28;20032;-84
2023/03/09 05:40:39;;;;;;;4.80;1.37;;;;;;;6.95;100.00;94362.25;5068880;28;20028;-83
2023/03/09 05:43:08;;;;;;;8.37;1.97;;;;;;;6.95;100.00;94370.09;5036543;28;20057;-85
2023/03/09 05:45:34;;;;;;;8.73;1.40;;;;;;;6.99;100.00;94379.19;5085606;28;20550;-82
2023/03/09 05:48:00;;;;;;;9.30;1.70;;;;;;;6.96;100.00;94379.53;5035404;28;20107;-82
2023/03/09 05:50:31;;;;;;;6.87;1.70;;;;;;;6.96;100.00;94369.09;5052925;28;21045;-84
2023/03/09 05:52:58;;;;;;;7.13;1.47;;;;;;;6.94;100.00;94384.13;5036825;28;20051;-83
2023/03/09 05:55:27;;;;;;;10.70;1.60;;;;;;;6.92;100.00;94396.59;5068970;28;20036;-84
2023/03/09 05:57:52;;;;;;;9.93;2.00;;;;;;;6.93;100.00;94393.78;5053756;28;20033;-84
2023/03/09 06:00:24;;;;;;;6.97;1.33;;;;;;;6.92;100.00;94407.84;5052337;28;20102;-84
2023/03/09 06:03:31;;;;;;;10.07;1.83;;;;;;;6.95;100.00;94401.44;5069580;28;20118;-84
2023/03/09 06:06:02;;;;;;;8.50;1.43;;;;;;;6.90;100.00;94422.88;5056834;28;21413;-84
2023/03/09 06:08:31;;;;;;;9.33;1.53;;;;;;;6.96;100.00;94431.81;5064989;28;20052;-84
2023/03/09 06:11:01;;;;;;;11.17;2.30;;;;;;;6.94;100.00;94439.84;5060448;28;20033;-84
2023/03/09 06:13:28;;;;;;;7.50;1.87;;;;;;;6.93;100.00;94442.63;5088458;28;20090;-84
2023/03/09 06:15:55;;;;;;;13.27;2.87;;;;;;;6.97;100.00;94456.94;5057994;28;20029;-84
2023/03/09 06:18:21;;;;;;;7.93;1.90;;;;;;;6.96;100.00;94455.31;5048473;28;20025;-84
2023/03/09 06:20:50;;;;;;;6.27;1.63;;;;;;;6.95;100.00;94457.13;5067268;28;20557;-84
2023/03/09 06:23:18;;;;;;;12.33;1.90;;;;;;;6.90;100.00;94463.88;5053180;28;20749;-84
2023/03/09 06:25:44;;;;;;;7.90;1.70;;;;;;;6.93;100.00;94464.31;5057075;28;20071;-84
2023/03/09 06:28:11;;;;;;;8.03;1.70;;;;;;;6.89;100.00;94470.09;5071233;28;20033;-83
2023/03/09 06:30:41;;;;;;;9.97;1.63;;;;;;;6.92;100.00;94472.34;5055429;28;20064;-84
2023/03/09 06:33:09;;;;;;;10.03;1.87;;;;;;;7.00;100.00;94475.69;5068146;28;20043;-84
2023/03/09 06:35:40;;;;;;;7.03;1.67;;;;;;;6.91;100.00;94484.63;5043774;28;20742;-84
2023/03/09 06:38:19;;;;;;;5.47;1.30;;;;;;;6.90;100.00;94482.97;5066065;28;20040;-84
2023/03/09 06:40:48;;;;;;;11.23;2.00;;;;;;;6.97;100.00;94480.47;5051234;28;20494;-84
2023/03/09 06:43:16;;;;;;;17.07;3.20;;;;;;;7.19;100.00;94483.97;5052838;28;20033;-84
2023/03/09 06:45:44;;;;;;;6.67;1.50;;;;;;;7.46;100.00;94480.69;5042378;28;20079;-84
2023/03/09 06:48:15;;;;;;;10.47;1.67;;;;;;;7.56;100.00;94483.84;5067155;28;20453;-84
2023/03/09 06:50:41;;;;;;;11.43;1.87;;;;;;;8.13;100.00;94494.50;5050756;28;20087;-84
2023/03/09 06:53:11;;;;;;;8.33;3.33;;;;;;;7.98;100.00;94487.53;5055029;28;20414;-84
2023/03/09 06:55:44;;;;;;;8.87;1.60;;;;;;;7.70;100.00;94491.84;5083205;28;20098;-84
2023/03/09 06:58:12;;;;;;;12.10;2.60;;;;;;;7.72;100.00;94490.66;5067122;28;20036;-84
2023/03/09 07:00:43;;;;;;;6.57;1.77;;;;;;;7.65;100.00;94489.78;5033955;28;20040;-84
2023/03/09 07:03:17;;;;;;;8.10;1.90;;;;;;;7.78;100.00;94489.94;5048904;28;20021;-82
2023/03/09 07:05:43;;;;;;;9.10;2.37;;;;;;;7.88;100.00;94494.03;5066714;28;20036;-83
2023/03/09 07:08:09;;;;;;;11.53;2.10;;;;;;;7.84;100.00;94487.56;5050986;28;20112;-83
2023/03/09 07:10:43;;;;;;;9.93;1.67;;;;;;;8.10;100.00;94490.44;5050634;28;20036;-83
2023/03/09 07:13:15;;;;;;;9.60;1.67;;;;;;;8.29;100.00;94489.03;5049356;28;20394;-82
2023/03/09 07:15:41;;;;;;;10.57;1.73;;;;;;;8.60;100.00;94493.13;5082921;28;20040;-83
2023/03/09 07:18:07;;;;;;;14.53;4.00;;;;;;;8.40;100.00;94495.59;5082746;28;20482;-83
2023/03/09 07:20:33;;;;;;;9.20;2.47;;;;;;;8.32;100.00;94503.56;5049594;28;20037;-83
2023/03/09 07:22:58;;;;;;;8.60;2.37;;;;;;;8.26;100.00;94502.50;5082372;28;20462;-83
2023/03/09 07:25:24;;;;;;;12.80;2.43;;;;;;;8.72;100.00;94513.41;5049032;28;20040;-83
2023/03/09 07:27:52;;;;;;;9.03;2.20;;;;;;;8.69;100.00;94503.28;5049190;28;20092;-83
2023/03/09 07:30:18;;;;;;;12.20;3.50;;;;;;;8.53;100.00;94518.47;5058912;28;20501;-83
2023/03/09 07:32:43;;;;;;;6.77;2.13;;;;;;;8.49;100.00;94518.84;5054922;28;20041;-83
2023/03/09 07:35:09;;;;;;;8.73;2.03;;;;;;;8.40;100.00;94519.16;5047413;28;20106;-82
2023/03/09 07:37:35;;;;;;;8.57;1.90;;;;;;;8.41;100.00;94528.63;5049132;28;20482;-83
2023/03/09 07:40:00;;;;;;;7.93;1.73;;;;;;;9.61;100.00;94523.22;5074217;28;20123;-83
2023/03/09 07:42:26;;;;;;;9.57;1.60;;;;;;;10.61;100.00;94511.19;5082537;28;20086;-83
2023/03/09 07:45:14;;;;;;;11.33;2.33;;;;;;;11.37;100.00;94512.53;5049397;28;20033;-83
2023/03/09 07:47:40;;;;;;;5.57;1.40;;;;;;;11.45;100.00;94507.03;5050449;28;20517;-83
2023/03/09 07:50:06;;;;;;;9.57;2.63;;;;;;;11.32;100.00;94513.13;5049755;28;20025;-82
2023/03/09 07:52:40;;;;;;;8.57;2.33;;;;;;;11.61;100.00;94505.78;5050693;28;20064;-83
2023/03/09 07:55:11;;;;;;;6.93;1.83;;;;;;;11.43;100.00;94511.69;5054022;28;20092;-82
2023/03/09 07:57:36;;;;;;;7.67;1.77;;;;;;;11.44;100.00;94515.16;5045755;28;20037;-83
2023/03/09 08:00:08;;;;;;;8.07;1.87;;;;;;;11.93;100.00;94519.06;5063767;28;20410;-83
2023/03/09 08:02:42;;;;;;;8.13;1.30;;;;;;;12.12;100.00;94520.00;5059805;28;20120;-83
2023/03/09 08:05:09;;;;;;;7.60;1.70;;;;;;;11.50;100.00;94532.72;5048656;28;20039;-83
2023/03/09 08:07:35;;;;;;;7.47;1.70;;;;;;;10.63;100.00;94542.53;5049459;28;20055;-83
2023/03/09 08:10:06;;;;;;;8.77;1.60;;;;;;;11.37;100.00;94552.03;5052870;28;20025;-83
2023/03/09 08:12:31;;;;;;;5.93;1.33;;;;;;;11.74;100.00;94549.72;5049917;28;20064;-82
2023/03/09 08:14:57;;;;;;;7.37;1.63;;;;;;;11.48;100.00;94551.38;5092875;28;20041;-83
2023/03/09 08:17:23;;;;;;;6.67;2.40;;;;;;;10.42;100.00;94556.63;5069167;28;20033;-83
2023/03/09 08:19:48;;;;;;;9.10;1.80;;;;;;;10.65;100.00;94566.78;5054491;28;20041;-83
2023/03/09 08:22:14;;;;;;;10.33;1.63;;;;;;;12.07;100.00;94564.59;5059790;28;20036;-83
2023/03/09 08:24:40;;;;;;;8.70;2.43;;;;;;;12.11;100.00;94563.97;5052749;28;20037;-83
2023/03/09 08:27:05;;;;;;;5.67;1.40;;;;;;;13.24;100.00;94554.50;5052514;28;20036;-83
2023/03/09 08:29:31;;;;;;;7.07;1.30;;;;;;;11.93;100.00;94577.81;5086723;28;20036;-83
2023/03/09 08:31:57;;;;;;;5.63;1.50;;;;;;;11.49;100.00;94574.06;5052303;28;20041;-83
2023/03/09 08:34:22;;;;;;;6.93;1.60;;;;;;;11.34;100.00;94586.63;5052461;28;20029;-83
2023/03/09 08:36:48;;;;;;;6.27;1.00;;;;;;;11.15;100.00;94587.44;5074950;28;20094;-83
2023/03/09 08:39:14;;;;;;;6.03;1.30;;;;;;;10.88;100.00;94589.28;5035568;28;20069;-83
2023/03/09 08:41:41;;;;;;;5.83;1.40;;;;;;;11.15;100.00;94592.72;5069372;28;20028;-83
2023/03/09 08:44:08;;;;;;;7.53;1.53;;;;;;;11.08;100.00;94608.50;5052048;28;20478;-83
2023/03/09 08:46:34;;;;;;;9.23;1.67;;;;;;;11.25;100.00;94599.19;5052589;28;20032;-83
2023/03/09 08:49:18;;;;;;;4.30;1.30;;;;;;;10.68;100.00;94612.91;5052377;28;20037;-83
2023/03/09 08:51:43;;;;;;;7.43;1.20;;;;;;;10.71;100.00;94617.78;5052405;28;20082;-83
2023/03/09 08:54:09;;;;;;;6.70;1.47;;;;;;;10.50;100.00;94619.53;5053952;28;20483;-83
2023/03/09 08:56:35;;;;;;;7.03;1.33;;;;;;;10.36;100.00;94626.59;5052599;28;20494;-82
2023/03/09 08:59:09;;;;;;;6.27;1.30;;;;;;;11.71;100.00;94608.06;5068592;28;20037;-83
2023/03/09 09:01:35;;;;;;;6.90;1.50;;;;;;;11.58;100.00;94622.03;5035492;28;20029;-84
2023/03/09 09:04:01;;;;;;;4.50;1.13;;;;;;;11.36;100.00;94612.75;5092155;28;20115;-82
2023/03/09 09:06:29;;;;;;;5.30;1.07;;;;;;;11.83;100.00;94611.66;5035693;28;20032;-84
2023/03/09 09:08:55;;;;;;;7.30;1.70;;;;;;;11.24;100.00;94629.16;5068158;28;20032;-83
2023/03/09 09:11:21;;;;;;;7.13;1.30;;;;;;;10.80;100.00;94635.78;5055528;28;20033;-83
2023/03/09 09:13:52;;;;;;;4.33;0.97;;;;;;;10.62;100.00;94641.59;5068284;28;20033;-84
2023/03/09 09:16:19;;;;;;;5.07;1.10;;;;;;;10.47;100.00;94640.97;5085786;28;20032;-83
2023/03/09 09:18:46;;;;;;;6.13;1.03;;;;;;;10.15;100.00;94645.84;5036277;28;20033;-83
2023/03/09 09:21:14;;;;;;;9.53;1.20;;;;;;;10.05;100.00;94645.41;5051550;28;20021;-83
2023/03/09 09:23:43;;;;;;;4.93;1.13;;;;;;;10.04;100.00;94656.91;5030222;28;20041;-83
2023/03/09 09:26:11;;;;;;;5.10;1.20;;;;;;;9.92;100.00;94663.72;5047611;28;20079;-83
2023/03/09 09:28:41;;;;;;;4.67;1.07;;;;;;;9.76;100.00;94658.75;5046880;28;20127;-83
2023/03/09 09:31:09;;;;;;;5.10;1.10;;;;;;;9.65;100.00;94671.41;5060206;28;20072;-82
2023/03/09 09:33:39;;;;;;;2.57;1.00;;;;;;;9.58;100.00;94688.94;5044162;28;20060;-83
2023/03/09 09:36:11;;;;;;;5.43;1.20;;;;;;;9.45;100.00;94705.38;5029271;28;20063;-82
2023/03/09 09:38:37;;;;;;;4.40;0.90;;;;;;;9.38;100.00;94698.47;5049868;28;20405;-82
2023/03/09 09:41:24;;;;;;;6.57;1.37;;;;;;;9.32;100.00;94707.09;5031060;28;20013;-84
2023/03/09 09:43:54;;;;;;;10.43;1.63;;;;;;;9.35;100.00;94717.22;5053103;28;20033;-82
2023/03/09 09:46:22;;;;;;;6.20;1.73;;;;;;;9.41;100.00;94705.97;5043688;28;20037;-83
2023/03/09 09:48:49;;;;;;;6.40;1.10;;;;;;;9.33;100.00;94720.03;5047320;28;20035;-83
2023/03/09 09:51:36;;;;;;;6.50;1.30;;;;;;;9.33;100.00;94734.97;5075734;28;20033;-83
2023/03/09 09:54:47;;;;;;;5.37;1.13;;;;;;;9.05;100.00;94740.94;5043070;28;20918;-83
2023/03/09 09:57:36;;;;;;;3.47;1.00;;;;;;;8.98;100.00;94755.78;4994345;28;20476;-83
2023/03/09 10:00:13;;;;;;;4.33;0.80;;;;;;;8.85;100.00;94758.25;5067269;28;20063;-82
2023/03/09 10:02:49;;;;;;;6.13;1.17;;;;;;;8.78;100.00;94757.38;5062120;28;20060;-83
2023/03/09 10:05:37;;;;;;;5.37;1.37;;;;;;;8.73;100.00;94766.63;5082997;28;20025;-82
2023/03/09 10:08:21;;;;;;;4.90;2.10;;;;;;;8.62;100.00;94774.16;5064566;28;20032;-82
2023/03/09 10:10:48;;;;;;;7.33;0.87;;;;;;;8.81;100.00;94760.44;5080294;28;20095;-82
2023/03/09 10:13:30;;;;;;;3.27;0.70;;;;;;;8.85;100.00;94768.75;5083372;28;20128;-82
2023/03/09 10:16:01;;;;;;;5.27;1.53;;;;;;;9.15;100.00;94767.69;5036553;28;20071;-82
2023/03/09 10:18:38;;;;;;;4.33;0.60;;;;;;;9.29;100.00;94757.31;5066876;28;20021;-83
2023/03/09 10:21:12;;;;;;;5.23;1.07;;;;;;;9.26;100.00;94773.44;5066154;28;20445;-83
2023/03/09 10:23:41;;;;;;;3.37;0.80;;;;;;;9.65;100.00;94765.09;5052882;28;20122;-83
2023/03/09 10:26:42;;;;;;;2.97;0.70;;;;;;;9.99;100.00;94766.16;5068824;28;20033;-82
2023/03/09 10:29:25;;;;;;;8.13;1.63;;;;;;;9.93;100.00;94762.50;5050405;28;20032;-82
2023/03/09 10:32:04;;;;;;;3.97;0.60;;;;;;;10.21;100.00;94772.19;5068000;28;20483;-82
2023/03/09 10:34:38;;;;;;;3.67;1.40;;;;;;;10.34;100.00;94767.03;5058449;28;20345;-82
2023/03/09 10:37:43;;;;;;;9.07;2.40;;;;;;;10.28;100.00;94749.41;5049760;28;20032;-83
2023/03/09 10:40:46;;;;;;;5.23;0.87;;;;;;;10.74;100.00;94756.72;5049148;28;20037;-83
2023/03/09 10:43:23;;;;;;;5.47;1.80;;;;;;;10.26;100.00;94773.28;5055180;28;20056;-83
2023/03/09 10:45:49;;;;;;;4.53;1.17;;;;;;;10.88;100.00;94757.59;5032502;28;20041;-82
2023/03/09 10:48:21;;;;;;;2.27;0.83;;;;;;;10.61;100.00;94753.03;5065322;28;20127;-83
2023/03/09 10:51:00;;;;;;;2.67;0.70;;;;;;;11.12;100.00;94745.72;5064644;28;20032;-82
2023/03/09 10:53:35;;;;;;;5.27;0.90;;;;;;;10.97;100.00;94748.53;5035985;28;20040;-82
2023/03/09 10:56:27;;;;;;;5.63;1.20;;;;;;;11.31;100.00;94756.28;5063064;28;20029;-83
2023/03/09 10:59:08;;;;;;;2.10;0.80;;;;;;;12.29;100.00;94747.78;5081431;28;20596;-83
2023/03/09 11:01:45;;;;;;;3.97;0.97;;;;;;;12.05;100.00;94748.44;5031839;28;20052;-83
2023/03/09 11:04:23;;;;;;;3.20;0.90;;;;;;;11.76;100.00;94751.25;5047549;28;20028;-83
2023/03/09 11:07:14;;;;;;;4.63;0.80;;;;;;;11.12;100.00;94761.50;5048357;28;20045;-83
2023/03/09 11:09:42;;;;;;;6.83;2.33;;;;;;;10.68;100.00;94781.16;5061182;28;20036;-83
2023/03/09 11:12:36;;;;;;;8.63;3.17;;;;;;;10.57;100.00;94785.16;5048677;28;20073;-83
2023/03/09 11:15:08;;;;;;;2.38;0.70;;;;;;;10.52;100.00;94783.09;5048164;28;20542;-83
2023/03/09 11:17:45;;;;;;;4.57;1.10;;;;;;;10.70;100.00;94789.69;5064628;28;20045;-83
2023/03/09 11:20:28;;;;;;;3.27;0.70;;;;;;;10.66;100.00;94789.22;5048575;28;20094;-83
2023/03/09 11:23:17;;;;;;;4.20;1.00;;;;;;;11.15;100.00;94784.78;5029197;28;20483;-82
2023/03/09 11:25:57;;;;;;;4.30;1.17;;;;;;;11.83;100.00;94784.69;5066013;28;20029;-83
2023/03/09 11:28:54;;;;;;;4.80;1.10;;;;;;;11.99;100.00;94777.22;5054189;28;20029;-83
2023/03/09 11:31:23;;;;;;;4.17;0.93;;;;;;;12.10;100.00;94765.25;5073628;28;20021;-82
2023/03/09 11:33:52;;;;;;;2.57;0.77;;;;;;;12.47;100.00;94771.69;5055585;28;20097;-82
2023/03/09 11:36:42;;;;;;;3.00;0.87;;;;;;;12.43;100.00;94770.47;5056663;28;20095;-83
2023/03/09 11:39:20;;;;;;;4.63;1.20;;;;;;;12.18;100.00;94769.50;5079321;28;20041;-83
2023/03/09 11:41:49;;;;;;;6.40;1.30;;;;;;;12.13;100.00;94780.66;5067456;28;20471;-82
2023/03/09 11:44:23;;;;;;;3.77;1.10;;;;;;;12.07;100.00;94775.38;5047569;28;20613;-83
2023/03/09 11:46:52;;;;;;;9.20;1.40;;;;;;;12.28;100.00;94777.81;5082401;28;20113;-83
2023/03/09 11:49:23;;;;;;;5.13;1.23;;;;;;;12.11;100.00;94766.88;5048221;28;20025;-82